createdAt,value
2018-08-06T00:00:24.831Z,1010.50
2018-08-06T00:01:24.736Z,1010.50
2018-08-06T00:02:24.805Z,1010.52
2018-08-06T00:03:24.807Z,1010.51
2018-08-06T00:04:24.736Z,1010.46
2018-08-06T00:05:24.811Z,1010.51
2018-08-06T00:06:24.766Z,1010.53
2018-08-06T00:07:24.778Z,1010.56
2018-08-06T00:08:24.741Z,1010.51
2018-08-06T00:09:24.770Z,1010.53
2018-08-06T00:10:24.809Z,1010.55
2018-08-06T00:11:24.812Z,1010.54
2018-08-06T00:12:24.765Z,1010.56
2018-08-06T00:13:24.771Z,1010.53
2018-08-06T00:14:24.792Z,1010.55
2018-08-06T00:15:24.810Z,1010.59
2018-08-06T00:16:24.811Z,1010.60
2018-08-06T00:17:24.812Z,1010.58
2018-08-06T00:18:24.739Z,1010.56
2018-08-06T00:19:24.741Z,1010.59
2018-08-06T00:20:24.813Z,1010.51
2018-08-06T00:21:24.813Z,1010.50
2018-08-06T00:22:24.775Z,1010.50
2018-08-06T00:23:24.826Z,1010.46
2018-08-06T00:24:24.690Z,1010.44
2018-08-06T00:25:24.803Z,1010.47
2018-08-06T00:26:24.808Z,1010.47
2018-08-06T00:27:24.748Z,1010.45
2018-08-06T00:28:24.807Z,1010.51
2018-08-06T00:29:24.724Z,1010.51
2018-08-06T00:30:24.753Z,1010.48
2018-08-06T00:31:24.756Z,1010.51
2018-08-06T00:32:24.849Z,1010.53
2018-08-06T00:33:24.827Z,1010.48
2018-08-06T00:34:24.757Z,1010.47
2018-08-06T00:35:24.825Z,1010.48
2018-08-06T00:36:24.710Z,1010.45
2018-08-06T00:37:24.760Z,1010.42
2018-08-06T00:38:24.832Z,1010.44
2018-08-06T00:39:24.834Z,1010.46
2018-08-06T00:40:24.763Z,1010.43
2018-08-06T00:41:24.801Z,1010.44
2018-08-06T00:42:24.852Z,1010.44
2018-08-06T00:43:24.810Z,1010.42
2018-08-06T00:44:24.856Z,1010.45
2018-08-06T00:45:24.894Z,1010.44
2018-08-06T00:46:24.736Z,1010.42
2018-08-06T00:47:24.833Z,1010.42
2018-08-06T00:48:24.865Z,1010.40
2018-08-06T00:49:24.742Z,1010.37
2018-08-06T00:50:24.836Z,1010.37
2018-08-06T00:51:24.858Z,1010.36
2018-08-06T00:52:24.819Z,1010.32
2018-08-06T00:53:24.871Z,1010.35
2018-08-06T00:54:24.807Z,1010.32
2018-08-06T00:55:24.860Z,1010.30
2018-08-06T00:56:24.859Z,1010.34
2018-08-06T00:57:24.817Z,1010.34
2018-08-06T00:58:24.872Z,1010.33
2018-08-06T00:59:24.813Z,1010.31
2018-08-06T01:00:24.902Z,1010.32
2018-08-06T01:01:24.799Z,1010.28
2018-08-06T01:02:24.751Z,1010.23
2018-08-06T01:03:24.876Z,1010.24
2018-08-06T01:04:24.850Z,1010.21
2018-08-06T01:05:24.816Z,1010.23
2018-08-06T01:06:24.867Z,1010.18
2018-08-06T01:07:24.774Z,1010.20
2018-08-06T01:08:24.774Z,1010.19
2018-08-06T01:09:24.885Z,1010.20
2018-08-06T01:10:24.885Z,1010.17
2018-08-06T01:11:24.881Z,1010.16
2018-08-06T01:12:24.875Z,1010.17
2018-08-06T01:13:24.851Z,1010.16
2018-08-06T01:14:24.789Z,1010.20
2018-08-06T01:15:24.760Z,1010.17
2018-08-06T01:16:24.772Z,1010.16
2018-08-06T01:17:24.798Z,1010.13
2018-08-06T01:18:24.781Z,1010.18
2018-08-06T01:19:24.893Z,1010.15
2018-08-06T01:20:24.839Z,1010.13
2018-08-06T01:21:24.819Z,1010.12
2018-08-06T01:22:24.762Z,1010.14
2018-08-06T01:23:24.832Z,1010.08
2018-08-06T01:24:24.820Z,1010.06
2018-08-06T01:25:24.837Z,1010.05
2018-08-06T01:26:24.896Z,1010.06
2018-08-06T01:27:24.840Z,1010.06
2018-08-06T01:28:24.889Z,1010.09
2018-08-06T01:29:24.847Z,1010.06
2018-08-06T01:30:24.887Z,1010.04
2018-08-06T01:31:24.921Z,1010.06
2018-08-06T01:32:24.828Z,1010.02
2018-08-06T01:33:24.845Z,1010.03
2018-08-06T01:34:24.886Z,1010.05
2018-08-06T01:35:24.870Z,1010.04
2018-08-06T01:36:24.912Z,1010.07
2018-08-06T01:37:24.852Z,1010.03
2018-08-06T01:38:24.777Z,1010.03
2018-08-06T01:39:24.878Z,1010.06
2018-08-06T01:40:24.788Z,1010.03
2018-08-06T01:41:24.739Z,1010.07
2018-08-06T01:42:24.747Z,1010.09
2018-08-06T01:43:24.830Z,1010.07
2018-08-06T01:44:24.867Z,1010.05
2018-08-06T01:45:24.879Z,1010.05
2018-08-06T01:46:24.870Z,1010.02
2018-08-06T01:47:24.784Z,1010.01
2018-08-06T01:48:24.799Z,1010.02
2018-08-06T01:49:24.872Z,1010.01
2018-08-06T01:50:24.786Z,1010.00
2018-08-06T01:51:24.918Z,1010.04
2018-08-06T01:52:24.883Z,1010.05
2018-08-06T01:53:24.921Z,1010.02
2018-08-06T01:54:24.860Z,1010.04
2018-08-06T01:55:24.846Z,1010.06
2018-08-06T01:56:24.913Z,1010.03
2018-08-06T01:57:24.801Z,1010.03
2018-08-06T01:58:24.918Z,1010.02
2018-08-06T01:59:24.861Z,1010.06
2018-08-06T02:00:24.868Z,1010.07
2018-08-06T02:01:24.910Z,1010.04
2018-08-06T02:02:24.886Z,1010.08
2018-08-06T02:03:24.824Z,1010.05
2018-08-06T02:04:24.851Z,1010.03
2018-08-06T02:05:24.917Z,1010.04
2018-08-06T02:06:24.830Z,1010.03
2018-08-06T02:07:24.812Z,1010.02
2018-08-06T02:08:24.935Z,1010.00
2018-08-06T02:09:24.812Z,1010.04
2018-08-06T02:10:24.792Z,1010.02
2018-08-06T02:11:24.872Z,1010.00
2018-08-06T02:12:24.866Z,1010.01
2018-08-06T02:13:24.855Z,1009.96
2018-08-06T02:14:24.862Z,1009.96
2018-08-06T02:15:24.831Z,1009.87
2018-08-06T02:16:24.861Z,1009.89
2018-08-06T02:17:24.933Z,1009.92
2018-08-06T02:18:24.957Z,1009.88
2018-08-06T02:19:24.897Z,1009.89
2018-08-06T02:20:24.930Z,1009.89
2018-08-06T02:21:24.857Z,1009.84
2018-08-06T02:22:24.903Z,1009.84
2018-08-06T02:23:24.926Z,1009.81
2018-08-06T02:24:24.844Z,1009.80
2018-08-06T02:25:24.905Z,1009.81
2018-08-06T02:26:24.908Z,1009.81
2018-08-06T02:27:24.840Z,1009.82
2018-08-06T02:28:24.904Z,1009.81
2018-08-06T02:29:24.842Z,1009.80
2018-08-06T02:30:24.907Z,1009.81
2018-08-06T02:31:24.874Z,1009.79
2018-08-06T02:32:24.907Z,1009.79
2018-08-06T02:33:24.930Z,1009.77
2018-08-06T02:34:24.863Z,1009.76
2018-08-06T02:35:24.889Z,1009.77
2018-08-06T02:36:24.937Z,1009.79
2018-08-06T02:37:24.859Z,1009.77
2018-08-06T02:38:24.938Z,1009.75
2018-08-06T02:39:24.885Z,1009.74
2018-08-06T02:40:24.812Z,1009.74
2018-08-06T02:41:24.854Z,1009.75
2018-08-06T02:42:24.919Z,1009.74
2018-08-06T02:43:24.917Z,1009.71
2018-08-06T02:44:24.848Z,1009.77
2018-08-06T02:45:24.937Z,1009.71
2018-08-06T02:46:24.803Z,1009.71
2018-08-06T02:47:24.877Z,1009.67
2018-08-06T02:48:24.854Z,1009.74
2018-08-06T02:49:24.854Z,1009.69
2018-08-06T02:50:24.888Z,1009.68
2018-08-06T02:51:24.857Z,1009.66
2018-08-06T02:52:24.899Z,1009.68
2018-08-06T02:53:24.906Z,1009.69
2018-08-06T02:54:24.826Z,1009.68
2018-08-06T02:55:24.827Z,1009.68
2018-08-06T02:56:24.945Z,1009.69
2018-08-06T02:57:24.928Z,1009.69
2018-08-06T02:58:24.848Z,1009.71
2018-08-06T02:59:24.845Z,1009.70
2018-08-06T03:00:24.894Z,1009.71
2018-08-06T03:01:24.955Z,1009.74
2018-08-06T03:02:24.870Z,1009.76
2018-08-06T03:03:24.894Z,1009.73
2018-08-06T03:04:24.958Z,1009.73
2018-08-06T03:05:24.931Z,1009.70
2018-08-06T03:06:24.872Z,1009.68
2018-08-06T03:07:24.904Z,1009.66
2018-08-06T03:08:24.841Z,1009.64
2018-08-06T03:09:24.933Z,1009.68
2018-08-06T03:10:24.968Z,1009.66
2018-08-06T03:11:24.897Z,1009.64
2018-08-06T03:12:24.755Z,1009.68
2018-08-06T03:13:24.812Z,1009.66
2018-08-06T03:14:24.796Z,1009.64
2018-08-06T03:15:24.797Z,1009.67
2018-08-06T03:16:24.867Z,1009.67
2018-08-06T03:17:24.784Z,1009.68
2018-08-06T03:18:24.816Z,1009.70
2018-08-06T03:19:24.818Z,1009.65
2018-08-06T03:20:24.754Z,1009.67
2018-08-06T03:21:24.865Z,1009.70
2018-08-06T03:22:24.880Z,1009.67
2018-08-06T03:23:24.947Z,1009.67
2018-08-06T03:24:24.833Z,1009.64
2018-08-06T03:25:24.916Z,1009.70
2018-08-06T03:26:24.951Z,1009.68
2018-08-06T03:27:24.877Z,1009.66
2018-08-06T03:28:24.877Z,1009.67
2018-08-06T03:29:24.881Z,1009.65
2018-08-06T03:30:24.957Z,1009.62
2018-08-06T03:31:24.887Z,1009.63
2018-08-06T03:32:24.870Z,1009.61
2018-08-06T03:33:24.856Z,1009.62
2018-08-06T03:34:24.929Z,1009.62
2018-08-06T03:35:24.950Z,1009.66
2018-08-06T03:36:24.955Z,1009.70
2018-08-06T03:37:24.994Z,1009.66
2018-08-06T03:38:24.871Z,1009.70
2018-08-06T03:39:24.995Z,1009.69
2018-08-06T03:40:24.909Z,1009.70
2018-08-06T03:41:24.954Z,1009.70
2018-08-06T03:42:24.996Z,1009.67
2018-08-06T03:43:24.980Z,1009.62
2018-08-06T03:44:24.934Z,1009.63
2018-08-06T03:45:24.922Z,1009.63
2018-08-06T03:46:24.879Z,1009.63
2018-08-06T03:47:24.863Z,1009.62
2018-08-06T03:48:24.958Z,1009.60
2018-08-06T03:49:24.892Z,1009.56
2018-08-06T03:50:24.986Z,1009.62
2018-08-06T03:51:24.902Z,1009.58
2018-08-06T03:52:24.992Z,1009.56
2018-08-06T03:53:24.993Z,1009.55
2018-08-06T03:54:24.886Z,1009.58
2018-08-06T03:55:24.964Z,1009.56
2018-08-06T03:56:24.994Z,1009.60
2018-08-06T03:57:24.891Z,1009.57
2018-08-06T03:58:24.951Z,1009.59
2018-08-06T03:59:24.910Z,1009.59
2018-08-06T04:02:37.414Z,1009.60
2018-08-06T04:03:24.912Z,1009.54
2018-08-06T04:04:24.948Z,1009.52
2018-08-06T04:05:24.879Z,1009.54
2018-08-06T04:06:24.947Z,1009.53
2018-08-06T04:07:24.878Z,1009.54
2018-08-06T04:08:24.932Z,1009.51
2018-08-06T04:09:24.881Z,1009.56
2018-08-06T04:10:24.882Z,1009.53
2018-08-06T04:11:24.952Z,1009.54
2018-08-06T04:12:24.917Z,1009.51
2018-08-06T04:13:24.955Z,1009.46
2018-08-06T04:14:24.910Z,1009.47
2018-08-06T04:15:24.909Z,1009.50
2018-08-06T04:16:24.915Z,1009.46
2018-08-06T04:17:24.916Z,1009.51
2018-08-06T04:18:24.984Z,1009.49
2018-08-06T04:19:24.868Z,1009.47
2018-08-06T04:20:24.944Z,1009.49
2018-08-06T04:21:24.920Z,1009.48
2018-08-06T04:22:24.916Z,1009.51
2018-08-06T04:23:24.938Z,1009.51
2018-08-06T04:24:24.983Z,1009.51
2018-08-06T04:25:24.921Z,1009.53
2018-08-06T04:26:24.921Z,1009.55
2018-08-06T04:27:24.995Z,1009.53
2018-08-06T04:28:24.924Z,1009.56
2018-08-06T04:29:24.924Z,1009.55
2018-08-06T04:30:24.953Z,1009.55
2018-08-06T04:31:24.993Z,1009.57
2018-08-06T04:32:24.950Z,1009.56
2018-08-06T04:33:25.023Z,1009.54
2018-08-06T04:34:25.028Z,1009.53
2018-08-06T04:35:25.017Z,1009.51
2018-08-06T04:36:24.988Z,1009.56
2018-08-06T04:37:24.917Z,1009.58
2018-08-06T04:38:24.980Z,1009.55
2018-08-06T04:39:24.980Z,1009.54
2018-08-06T04:40:24.933Z,1009.53
2018-08-06T04:41:24.999Z,1009.51
2018-08-06T04:42:24.967Z,1009.53
2018-08-06T04:43:24.970Z,1009.54
2018-08-06T04:44:25.037Z,1009.52
2018-08-06T04:45:25.022Z,1009.59
2018-08-06T04:46:24.907Z,1009.56
2018-08-06T04:47:25.002Z,1009.59
2018-08-06T04:48:25.018Z,1009.60
2018-08-06T04:49:24.903Z,1009.60
2018-08-06T04:50:24.905Z,1009.63
2018-08-06T04:51:25.043Z,1009.67
2018-08-06T04:52:24.905Z,1009.70
2018-08-06T04:53:24.938Z,1009.71
2018-08-06T04:54:25.005Z,1009.70
2018-08-06T04:55:24.980Z,1009.65
2018-08-06T04:56:25.012Z,1009.64
2018-08-06T04:57:24.941Z,1009.63
2018-08-06T04:58:24.943Z,1009.64
2018-08-06T04:59:24.980Z,1009.64
2018-08-06T05:00:24.946Z,1009.68
2018-08-06T05:01:25.003Z,1009.68
2018-08-06T05:02:25.041Z,1009.68
2018-08-06T05:03:24.971Z,1009.64
2018-08-06T05:04:25.044Z,1009.69
2018-08-06T05:05:25.039Z,1009.69
2018-08-06T05:06:24.985Z,1009.72
2018-08-06T05:07:25.054Z,1009.76
2018-08-06T05:08:24.970Z,1009.74
2018-08-06T05:09:24.982Z,1009.76
2018-08-06T05:10:25.089Z,1009.73
2018-08-06T05:11:25.000Z,1009.75
2018-08-06T05:12:24.923Z,1009.73
2018-08-06T05:13:25.020Z,1009.74
2018-08-06T05:14:25.015Z,1009.72
2018-08-06T05:15:24.926Z,1009.65
2018-08-06T05:16:24.985Z,1009.68
2018-08-06T05:17:24.960Z,1009.69
2018-08-06T05:18:24.995Z,1009.64
2018-08-06T05:19:25.145Z,1009.61
2018-08-06T05:20:25.046Z,1009.67
2018-08-06T05:21:25.059Z,1009.65
2018-08-06T05:22:24.959Z,1009.65
2018-08-06T05:23:25.030Z,1009.66
2018-08-06T05:24:24.966Z,1009.68
2018-08-06T05:25:25.030Z,1009.67
2018-08-06T05:26:25.031Z,1009.70
2018-08-06T05:27:24.983Z,1009.72
2018-08-06T05:28:25.038Z,1009.68
2018-08-06T05:29:24.970Z,1009.67
2018-08-06T05:30:25.038Z,1009.69
2018-08-06T05:31:24.968Z,1009.64
2018-08-06T05:32:24.987Z,1009.61
2018-08-06T05:33:25.031Z,1009.60
2018-08-06T05:34:24.927Z,1009.59
2018-08-06T05:35:24.989Z,1009.58
2018-08-06T05:36:24.965Z,1009.59
2018-08-06T05:37:25.036Z,1009.61
2018-08-06T05:38:25.035Z,1009.66
2018-08-06T05:39:25.038Z,1009.64
2018-08-06T05:40:24.990Z,1009.63
2018-08-06T05:41:25.037Z,1009.63
2018-08-06T05:42:25.059Z,1009.62
2018-08-06T05:43:24.979Z,1009.60
2018-08-06T05:44:24.978Z,1009.58
2018-08-06T05:45:24.941Z,1009.56
2018-08-06T05:46:25.042Z,1009.55
2018-08-06T05:47:25.001Z,1009.56
2018-08-06T05:48:25.125Z,1009.55
2018-08-06T05:49:24.968Z,1009.59
2018-08-06T05:50:25.045Z,1009.62
2018-08-06T05:51:25.009Z,1009.60
2018-08-06T05:52:25.084Z,1009.62
2018-08-06T05:53:25.074Z,1009.60
2018-08-06T05:54:25.024Z,1009.61
2018-08-06T05:55:25.018Z,1009.61
2018-08-06T05:56:25.043Z,1009.61
2018-08-06T05:57:24.975Z,1009.65
2018-08-06T05:58:25.014Z,1009.66
2018-08-06T05:59:25.027Z,1009.67
2018-08-06T06:00:25.081Z,1009.67
2018-08-06T06:01:25.082Z,1009.71
2018-08-06T06:02:25.023Z,1009.71
2018-08-06T06:03:25.104Z,1009.68
2018-08-06T06:04:25.019Z,1009.67
2018-08-06T06:05:24.975Z,1009.69
2018-08-06T06:06:25.053Z,1009.64
2018-08-06T06:07:24.994Z,1009.66
2018-08-06T06:08:24.955Z,1009.61
2018-08-06T06:09:25.016Z,1009.61
2018-08-06T06:10:25.021Z,1009.65
2018-08-06T06:11:24.964Z,1009.63
2018-08-06T06:12:24.968Z,1009.63
2018-08-06T06:13:24.933Z,1009.62
2018-08-06T06:14:24.930Z,1009.62
2018-08-06T06:15:25.058Z,1009.65
2018-08-06T06:16:24.994Z,1009.65
2018-08-06T06:17:24.953Z,1009.64
2018-08-06T06:18:24.951Z,1009.62
2018-08-06T06:19:24.936Z,1009.66
2018-08-06T06:20:24.934Z,1009.63
2018-08-06T06:21:25.001Z,1009.59
2018-08-06T06:22:25.071Z,1009.58
2018-08-06T06:23:25.067Z,1009.57
2018-08-06T06:24:25.000Z,1009.55
2018-08-06T06:25:25.014Z,1009.52
2018-08-06T06:26:25.112Z,1009.54
2018-08-06T06:27:25.072Z,1009.60
2018-08-06T06:28:25.011Z,1009.48
2018-08-06T06:29:25.036Z,1009.53
2018-08-06T06:30:25.013Z,1009.52
2018-08-06T06:31:25.008Z,1009.51
2018-08-06T06:32:25.095Z,1009.53
2018-08-06T06:33:25.111Z,1009.51
2018-08-06T06:34:25.048Z,1009.48
2018-08-06T06:35:25.048Z,1009.49
2018-08-06T06:36:24.978Z,1009.50
2018-08-06T06:37:25.078Z,1009.48
2018-08-06T06:38:25.115Z,1009.51
2018-08-06T06:39:25.019Z,1009.48
2018-08-06T06:40:25.095Z,1009.46
2018-08-06T06:41:25.061Z,1009.48
2018-08-06T06:42:25.103Z,1009.43
2018-08-06T06:43:25.113Z,1009.46
2018-08-06T06:44:25.121Z,1009.46
2018-08-06T06:45:25.054Z,1009.44
2018-08-06T06:46:25.056Z,1009.43
2018-08-06T06:47:25.086Z,1009.48
2018-08-06T06:48:25.121Z,1009.53
2018-08-06T06:49:25.055Z,1009.48
2018-08-06T06:50:25.054Z,1009.51
2018-08-06T06:51:25.051Z,1009.48
2018-08-06T06:52:24.974Z,1009.52
2018-08-06T06:53:24.999Z,1009.53
2018-08-06T06:54:25.108Z,1009.49
2018-08-06T06:55:25.018Z,1009.49
2018-08-06T06:56:25.022Z,1009.43
2018-08-06T06:57:25.079Z,1009.43
2018-08-06T06:58:24.956Z,1009.42
2018-08-06T06:59:25.085Z,1009.43
2018-08-06T07:00:25.078Z,1009.45
2018-08-06T07:01:24.958Z,1009.45
2018-08-06T07:02:24.997Z,1009.40
2018-08-06T07:03:25.114Z,1009.43
2018-08-06T07:04:25.097Z,1009.40
2018-08-06T07:05:25.118Z,1009.42
2018-08-06T07:06:25.165Z,1009.37
2018-08-06T07:07:25.022Z,1009.36
2018-08-06T07:08:25.135Z,1009.35
2018-08-06T07:09:25.133Z,1009.36
2018-08-06T07:10:25.143Z,1009.33
2018-08-06T07:11:25.074Z,1009.33
2018-08-06T07:12:25.081Z,1009.29
2018-08-06T07:13:25.100Z,1009.27
2018-08-06T07:14:25.001Z,1009.25
2018-08-06T07:15:25.084Z,1009.26
2018-08-06T07:16:25.088Z,1009.27
2018-08-06T07:17:25.119Z,1009.22
2018-08-06T07:18:25.050Z,1009.19
2018-08-06T07:19:25.084Z,1009.19
2018-08-06T07:20:25.148Z,1009.18
2018-08-06T07:21:25.015Z,1009.11
2018-08-06T07:22:25.060Z,1009.08
2018-08-06T07:23:25.043Z,1009.06
2018-08-06T07:24:24.980Z,1009.09
2018-08-06T07:25:25.063Z,1009.08
2018-08-06T07:26:25.101Z,1009.03
2018-08-06T07:27:25.072Z,1009.07
2018-08-06T07:28:25.001Z,1009.06
2018-08-06T07:29:25.106Z,1009.07
2018-08-06T07:30:25.045Z,1009.09
2018-08-06T07:31:25.067Z,1009.09
2018-08-06T07:32:25.021Z,1009.06
2018-08-06T07:33:24.996Z,1009.10
2018-08-06T07:34:25.105Z,1009.05
2018-08-06T07:35:24.989Z,1009.08
2018-08-06T07:36:25.107Z,1009.10
2018-08-06T07:37:25.113Z,1009.05
2018-08-06T07:38:24.992Z,1009.06
2018-08-06T07:39:25.068Z,1009.12
2018-08-06T07:40:25.029Z,1009.04
2018-08-06T07:41:25.057Z,1009.08
2018-08-06T07:42:25.142Z,1009.03
2018-08-06T07:43:25.151Z,1009.00
2018-08-06T07:44:25.168Z,1008.97
2018-08-06T07:45:25.085Z,1008.96
2018-08-06T07:46:25.152Z,1008.97
2018-08-06T07:47:25.131Z,1008.95
2018-08-06T07:48:25.099Z,1008.95
2018-08-06T07:49:25.066Z,1008.93
2018-08-06T07:50:25.086Z,1008.97
2018-08-06T07:51:25.031Z,1008.95
2018-08-06T07:52:25.097Z,1008.93
2018-08-06T07:53:25.036Z,1008.93
2018-08-06T07:54:25.165Z,1008.92
2018-08-06T07:55:25.153Z,1008.93
2018-08-06T07:56:25.039Z,1008.89
2018-08-06T07:57:25.055Z,1008.90
2018-08-06T07:58:25.036Z,1008.86
2018-08-06T07:59:25.037Z,1008.85
2018-08-06T08:00:25.113Z,1008.85
2018-08-06T08:01:25.096Z,1008.83
2018-08-06T08:02:25.110Z,1008.83
2018-08-06T08:03:25.073Z,1008.84
2018-08-06T08:04:25.071Z,1008.81
2018-08-06T08:05:25.138Z,1008.78
2018-08-06T08:06:25.127Z,1008.75
2018-08-06T08:07:25.069Z,1008.78
2018-08-06T08:09:25.181Z,1008.77
2018-08-06T08:10:25.140Z,1008.74
2018-08-06T08:11:25.078Z,1008.76
2018-08-06T08:12:25.081Z,1008.70
2018-08-06T08:13:25.078Z,1008.72
2018-08-06T08:14:25.078Z,1008.64
2018-08-06T08:15:25.083Z,1008.63
2018-08-06T08:16:25.079Z,1008.59
2018-08-06T08:17:25.147Z,1008.60
2018-08-06T08:18:25.149Z,1008.61
2018-08-06T08:19:25.106Z,1008.59
2018-08-06T08:20:25.225Z,1008.61
2018-08-06T08:21:25.177Z,1008.57
2018-08-06T08:22:25.083Z,1008.61
2018-08-06T08:23:25.080Z,1008.55
2018-08-06T08:24:25.071Z,1008.57
2018-08-06T08:25:25.145Z,1008.54
2018-08-06T08:26:25.041Z,1008.51
2018-08-06T08:27:25.139Z,1008.51
2018-08-06T08:28:25.058Z,1008.47
2018-08-06T08:29:25.055Z,1008.49
2018-08-06T08:30:25.047Z,1008.45
2018-08-06T08:31:25.092Z,1008.42
2018-08-06T08:32:25.149Z,1008.41
2018-08-06T08:33:25.163Z,1008.41
2018-08-06T08:34:25.103Z,1008.34
2018-08-06T08:35:25.162Z,1008.35
2018-08-06T08:36:25.091Z,1008.37
2018-08-06T08:37:25.160Z,1008.34
2018-08-06T08:38:25.096Z,1008.28
2018-08-06T08:39:25.162Z,1008.29
2018-08-06T08:40:25.163Z,1008.30
2018-08-06T08:41:25.131Z,1008.30
2018-08-06T08:42:25.170Z,1008.26
2018-08-06T08:43:25.085Z,1008.28
2018-08-06T08:44:25.083Z,1008.31
2018-08-06T08:45:25.133Z,1008.26
2018-08-06T08:46:25.178Z,1008.27
2018-08-06T08:47:25.165Z,1008.20
2018-08-06T08:48:25.198Z,1008.24
2018-08-06T08:49:25.168Z,1008.22
2018-08-06T08:50:25.095Z,1008.20
2018-08-06T08:51:25.070Z,1008.15
2018-08-06T08:52:25.198Z,1008.15
2018-08-06T08:53:25.109Z,1008.16
2018-08-06T08:54:25.174Z,1008.09
2018-08-06T08:55:25.113Z,1008.08
2018-08-06T08:56:25.110Z,1008.08
2018-08-06T08:57:25.174Z,1008.09
2018-08-06T08:58:25.110Z,1008.10
2018-08-06T08:59:25.108Z,1008.07
2018-08-06T09:00:25.115Z,1008.06
2018-08-06T09:01:25.179Z,1008.04
2018-08-06T09:02:25.117Z,1008.02
2018-08-06T09:03:25.182Z,1007.99
2018-08-06T09:04:25.146Z,1008.00
2018-08-06T09:05:25.182Z,1007.96
2018-08-06T09:06:25.119Z,1007.96
2018-08-06T09:07:25.223Z,1007.97
2018-08-06T09:08:25.185Z,1007.91
2018-08-06T09:09:25.138Z,1007.93
2018-08-06T09:10:25.189Z,1007.85
2018-08-06T09:11:25.126Z,1007.92
2018-08-06T09:12:25.087Z,1007.81
2018-08-06T09:13:25.210Z,1007.86
2018-08-06T09:14:25.096Z,1007.87
2018-08-06T09:15:25.261Z,1007.87
2018-08-06T09:16:25.112Z,1007.82
2018-08-06T09:17:25.159Z,1007.83
2018-08-06T09:18:25.218Z,1007.86
2018-08-06T09:19:25.237Z,1007.87
2018-08-06T09:20:25.198Z,1007.86
2018-08-06T09:21:25.196Z,1007.85
2018-08-06T09:22:25.147Z,1007.86
2018-08-06T09:23:25.118Z,1007.85
2018-08-06T09:24:25.195Z,1007.79
2018-08-06T09:25:25.153Z,1007.80
2018-08-06T09:26:25.173Z,1007.76
2018-08-06T09:27:25.173Z,1007.84
2018-08-06T09:28:25.225Z,1007.82
2018-08-06T09:29:25.279Z,1007.84
2018-08-06T09:30:25.189Z,1007.84
2018-08-06T09:31:25.172Z,1007.86
2018-08-06T09:32:25.183Z,1007.85
2018-08-06T09:33:25.102Z,1007.85
2018-08-06T09:34:25.172Z,1007.82
2018-08-06T09:35:25.179Z,1007.82
2018-08-06T09:36:25.141Z,1007.74
2018-08-06T09:37:25.372Z,1007.73
2018-08-06T09:38:25.173Z,1007.73
2018-08-06T09:39:25.240Z,1007.69
2018-08-06T09:40:25.236Z,1007.70
2018-08-06T09:41:25.150Z,1007.67
2018-08-06T09:42:25.205Z,1007.70
2018-08-06T09:43:25.170Z,1007.67
2018-08-06T09:44:25.201Z,1007.63
2018-08-06T09:45:25.167Z,1007.62
2018-08-06T09:46:25.131Z,1007.61
2018-08-06T09:47:25.233Z,1007.58
2018-08-06T09:48:25.182Z,1007.60
2018-08-06T09:49:25.242Z,1007.58
2018-08-06T09:50:25.187Z,1007.58
2018-08-06T09:51:25.245Z,1007.59
2018-08-06T09:52:25.155Z,1007.57
2018-08-06T09:53:25.214Z,1007.57
2018-08-06T09:54:25.238Z,1007.55
2018-08-06T09:55:25.211Z,1007.51
2018-08-06T09:56:25.220Z,1007.50
2018-08-06T09:57:25.149Z,1007.50
2018-08-06T09:58:25.216Z,1007.43
2018-08-06T09:59:25.152Z,1007.42
2018-08-06T10:00:25.173Z,1007.34
2018-08-06T10:01:25.160Z,1007.37
2018-08-06T10:02:25.243Z,1007.38
2018-08-06T10:03:25.228Z,1007.38
2018-08-06T10:04:25.154Z,1007.41
2018-08-06T10:05:25.223Z,1007.39
2018-08-06T10:06:25.395Z,1007.40
2018-08-06T10:07:25.219Z,1007.36
2018-08-06T10:08:25.226Z,1007.34
2018-08-06T10:09:25.155Z,1007.29
2018-08-06T10:10:25.164Z,1007.36
2018-08-06T10:11:25.231Z,1007.32
2018-08-06T10:12:25.171Z,1007.32
2018-08-06T10:13:25.155Z,1007.30
2018-08-06T10:14:25.220Z,1007.29
2018-08-06T10:15:25.149Z,1007.23
2018-08-06T10:16:25.257Z,1007.19
2018-08-06T10:17:25.206Z,1007.20
2018-08-06T10:18:25.255Z,1007.15
2018-08-06T10:19:25.241Z,1007.18
2018-08-06T10:20:25.273Z,1007.13
2018-08-06T10:21:25.254Z,1007.11
2018-08-06T10:22:25.158Z,1007.03
2018-08-06T10:23:25.237Z,1007.08
2018-08-06T10:24:25.242Z,1007.05
2018-08-06T10:25:25.212Z,1007.03
2018-08-06T10:26:25.162Z,1007.03
2018-08-06T10:27:25.204Z,1007.02
2018-08-06T10:28:25.182Z,1006.95
2018-08-06T10:29:25.215Z,1006.94
2018-08-06T10:30:25.212Z,1006.91
2018-08-06T10:31:25.263Z,1006.92
2018-08-06T10:32:25.200Z,1006.91
2018-08-06T10:33:25.119Z,1006.84
2018-08-06T10:34:25.138Z,1006.88
2018-08-06T10:35:25.222Z,1006.81
2018-08-06T10:36:25.183Z,1006.82
2018-08-06T10:37:25.226Z,1006.81
2018-08-06T10:38:25.143Z,1006.79
2018-08-06T10:39:25.245Z,1006.77
2018-08-06T10:40:25.203Z,1006.76
2018-08-06T10:41:25.236Z,1006.71
2018-08-06T10:42:25.186Z,1006.73
2018-08-06T10:43:25.176Z,1006.75
2018-08-06T10:44:25.289Z,1006.71
2018-08-06T10:45:25.274Z,1006.65
2018-08-06T10:46:25.234Z,1006.62
2018-08-06T10:47:25.281Z,1006.60
2018-08-06T10:48:25.367Z,1006.53
2018-08-06T10:49:25.215Z,1006.60
2018-08-06T10:50:25.254Z,1006.57
2018-08-06T10:51:25.281Z,1006.54
2018-08-06T10:52:25.284Z,1006.58
2018-08-06T10:53:25.221Z,1006.58
2018-08-06T10:54:25.295Z,1006.57
2018-08-06T10:55:25.328Z,1006.56
2018-08-06T10:56:25.264Z,1006.56
2018-08-06T10:57:25.286Z,1006.56
2018-08-06T10:58:25.168Z,1006.54
2018-08-06T10:59:25.222Z,1006.50
2018-08-06T11:00:25.190Z,1006.47
2018-08-06T11:01:25.292Z,1006.51
2018-08-06T11:02:25.206Z,1006.55
2018-08-06T11:03:25.319Z,1006.49
2018-08-06T11:04:25.194Z,1006.51
2018-08-06T11:05:25.231Z,1006.47
2018-08-06T11:06:25.266Z,1006.39
2018-08-06T11:07:25.266Z,1006.42
2018-08-06T11:08:25.191Z,1006.37
2018-08-06T11:09:25.286Z,1006.33
2018-08-06T11:10:25.271Z,1006.37
2018-08-06T11:11:25.246Z,1006.33
2018-08-06T11:12:25.251Z,1006.31
2018-08-06T11:13:25.250Z,1006.31
2018-08-06T11:14:25.330Z,1006.33
2018-08-06T11:15:25.300Z,1006.28
2018-08-06T11:16:25.313Z,1006.28
2018-08-06T11:17:25.305Z,1006.28
2018-08-06T11:18:25.183Z,1006.22
2018-08-06T11:19:25.209Z,1006.21
2018-08-06T11:20:25.285Z,1006.17
2018-08-06T11:21:25.319Z,1006.17
2018-08-06T11:22:25.309Z,1006.16
2018-08-06T11:23:25.308Z,1006.11
2018-08-06T11:24:25.243Z,1006.09
2018-08-06T11:25:25.201Z,1006.06
2018-08-06T11:26:25.319Z,1006.11
2018-08-06T11:27:25.308Z,1006.07
2018-08-06T11:28:25.343Z,1006.01
2018-08-06T11:29:25.309Z,1006.02
2018-08-06T11:30:25.256Z,1006.01
2018-08-06T11:31:25.312Z,1005.98
2018-08-06T11:32:25.188Z,1006.00
2018-08-06T11:33:25.320Z,1005.89
2018-08-06T11:34:25.261Z,1005.87
2018-08-06T11:35:25.254Z,1005.88
2018-08-06T11:36:25.225Z,1005.84
2018-08-06T11:37:25.311Z,1005.83
2018-08-06T11:38:25.288Z,1005.90
2018-08-06T11:39:25.288Z,1005.82
2018-08-06T11:40:25.270Z,1005.83
2018-08-06T11:41:25.193Z,1005.85
2018-08-06T11:42:25.253Z,1005.85
2018-08-06T11:43:25.295Z,1005.80
2018-08-06T11:44:25.228Z,1005.81
2018-08-06T11:45:25.229Z,1005.79
2018-08-06T11:46:25.229Z,1005.84
2018-08-06T11:47:25.296Z,1005.80
2018-08-06T11:48:25.295Z,1005.76
2018-08-06T11:49:25.237Z,1005.80
2018-08-06T11:50:25.298Z,1005.80
2018-08-06T11:51:25.190Z,1005.74
2018-08-06T11:52:25.251Z,1005.76
2018-08-06T11:53:25.235Z,1005.71
2018-08-06T11:54:25.300Z,1005.71
2018-08-06T11:55:25.300Z,1005.64
2018-08-06T11:56:25.331Z,1005.59
2018-08-06T11:57:25.238Z,1005.64
2018-08-06T11:58:25.301Z,1005.56
2018-08-06T11:59:25.306Z,1005.56
2018-08-06T12:00:25.235Z,1005.56
2018-08-06T12:01:25.239Z,1005.56
2018-08-06T12:02:25.240Z,1005.55
2018-08-06T12:03:25.311Z,1005.52
2018-08-06T12:04:25.307Z,1005.51
2018-08-06T12:05:25.310Z,1005.51
2018-08-06T12:06:25.304Z,1005.49
2018-08-06T12:07:25.244Z,1005.48
2018-08-06T12:08:25.358Z,1005.45